Información del aeropuerto ENSB

Información de pista
Pista 10 Longitud 7608 ft Anchura 148 ft
Elevación 63 ft Umbral 199 ft Rumbo 105
Pista 28 Longitud 7608 ft Anchura 148 ft
Elevación 73 ft Umbral 395 ft Rumbo 285
Frecuencias del aeropuerto
Tipo AFIS Nombre INFO Frecuencia 118.1 MHZ
Tipo AFIS Nombre INFO Frecuencia 884 MHZ
Radioayudas del aeropuerto
Información meteorológica del aeropuerto y NOTAM
ADDS - METARS form results

(2244 UTC 19 May 2022)
Data provider http://aviationweather.gov/metar/data/
 
METAR text: ENSB 192220Z 26008KT 9999 BKN025 M01/M06 Q1019 RMK WIND 1400FT 24007KT
Conditions at: ENSB (SVALBARD/LONGYEA, SJ) observed 2220 UTC 19 May 2022
Temperature: -1.0°C (30°F)
Dewpoint: -6.0°C (21°F) [RH = 69%]
Pressure (altimeter): 30.09 inches Hg (1019.0 mb)
Winds: from the W (260 degrees) at 9 MPH (8 knots; 4.1 m/s)
Visibility: 6 or more miles (10+ km)
Ceiling: 2500 feet AGL
Clouds: broken clouds at 2500 feet AGL
Weather: no significant weather observed at this time

METAR text: ENSB 192150Z 26009KT 9999 BKN025 M01/M06 Q1019 RMK WIND 1400FT 24008KT
Conditions at: ENSB (SVALBARD/LONGYEA, SJ) observed 2150 UTC 19 May 2022
Temperature: -1.0°C (30°F)
Dewpoint: -6.0°C (21°F) [RH = 69%]
Pressure (altimeter): 30.09 inches Hg (1019.0 mb)
Winds: from the W (260 degrees) at 10 MPH (9 knots; 4.6 m/s)
Visibility: 6 or more miles (10+ km)
Ceiling: 2500 feet AGL
Clouds: broken clouds at 2500 feet AGL
Weather: no significant weather observed at this time

Forecast for: ENSB (SVALBARD/LONGYEA, SJ)
Text: TAF ENSB 1918/2018 25012KT 9999 FEW020 BKN030
Forecast period: 1800 UTC 19 May 2022 to 0600 UTC 20 May 2022
Forecast type: FROM: standard forecast or significant change
Winds: from the WSW (250 degrees) at 14 MPH (12 knots; 6.2 m/s)
Visibility: 6 or more miles (10+ km)
Ceiling: 3000 feet AGL
Clouds: few clouds at 2000 feet AGL
broken clouds at 3000 feet AGL
Weather: no significant weather forecast for this period
Text: BECMG 2006/2009 10009KT
Forecast period: 0600 to 1800 UTC 20 May 2022
Forecast type: BECOMING: Conditions expected to become as follows by 0900 UTC 20 May 2022
Winds: from the E (100 degrees) at 10 MPH (9 knots; 4.6 m/s)
Visibility: 6 or more miles (10+ km)
Ceiling: 3000 feet AGL
Clouds: few clouds at 2000 feet AGL
broken clouds at 3000 feet AGL
Weather: no significant weather forecast for this period